sensor_id;sensor_type;location;lat;lon;timestamp;temperature;humidity
15556;DHT22;7879;48.660;9.116;2023-01-29T00:01:53;-0.30;99.90
15556;DHT22;7879;48.660;9.116;2023-01-29T00:04:20;-0.40;99.90
15556;DHT22;7879;48.660;9.116;2023-01-29T00:06:47;-0.40;99.90
15556;DHT22;7879;48.660;9.116;2023-01-29T00:09:14;-0.40;99.90
15556;DHT22;7879;48.660;9.116;2023-01-29T00:11:41;-0.40;99.90
15556;DHT22;7879;48.660;9.116;2023-01-29T00:14:08;-0.40;99.90
15556;DHT22;7879;48.660;9.116;2023-01-29T00:16:34;-0.40;99.90
15556;DHT22;7879;48.660;9.116;2023-01-29T00:19:02;-0.40;99.90
15556;DHT22;7879;48.660;9.116;2023-01-29T00:21:29;-0.40;99.90
15556;DHT22;7879;48.660;9.116;2023-01-29T00:23:58;-0.40;99.90
15556;DHT22;7879;48.660;9.116;2023-01-29T00:26:25;-0.40;99.90
15556;DHT22;7879;48.660;9.116;2023-01-29T00:28:53;-0.40;99.90
15556;DHT22;7879;48.660;9.116;2023-01-29T00:31:22;-0.40;99.90
15556;DHT22;7879;48.660;9.116;2023-01-29T00:33:50;-0.40;99.90
15556;DHT22;7879;48.660;9.116;2023-01-29T00:36:19;-0.40;99.90
15556;DHT22;7879;48.660;9.116;2023-01-29T00:38:46;-0.40;99.90
15556;DHT22;7879;48.660;9.116;2023-01-29T00:41:20;-0.40;99.90
15556;DHT22;7879;48.660;9.116;2023-01-29T00:44:06;-0.40;99.90
15556;DHT22;7879;48.660;9.116;2023-01-29T00:46:52;-0.40;99.90
15556;DHT22;7879;48.660;9.116;2023-01-29T00:49:19;-0.40;99.90
15556;DHT22;7879;48.660;9.116;2023-01-29T00:51:46;-0.40;99.90
15556;DHT22;7879;48.660;9.116;2023-01-29T00:54:35;-0.40;99.90
15556;DHT22;7879;48.660;9.116;2023-01-29T00:57:03;-0.40;99.90
15556;DHT22;7879;48.660;9.116;2023-01-29T00:59:29;-0.40;99.90
15556;DHT22;7879;48.660;9.116;2023-01-29T01:01:56;-0.40;99.90
15556;DHT22;7879;48.660;9.116;2023-01-29T01:04:44;-0.50;99.90
15556;DHT22;7879;48.660;9.116;2023-01-29T01:07:11;-0.40;99.90
15556;DHT22;7879;48.660;9.116;2023-01-29T01:09:37;-0.40;99.90
15556;DHT22;7879;48.660;9.116;2023-01-29T01:12:22;-0.40;99.90
15556;DHT22;7879;48.660;9.116;2023-01-29T01:14:49;-0.50;99.90
15556;DHT22;7879;48.660;9.116;2023-01-29T01:17:16;-0.50;99.90
15556;DHT22;7879;48.660;9.116;2023-01-29T01:19:43;-0.50;99.90
15556;DHT22;7879;48.660;9.116;2023-01-29T01:22:10;-0.50;99.90
15556;DHT22;7879;48.660;9.116;2023-01-29T01:24:37;-0.50;99.90
15556;DHT22;7879;48.660;9.116;2023-01-29T01:27:05;-0.40;99.90
15556;DHT22;7879;48.660;9.116;2023-01-29T01:29:32;-0.40;99.90
15556;DHT22;7879;48.660;9.116;2023-01-29T01:31:59;-0.40;99.90
15556;DHT22;7879;48.660;9.116;2023-01-29T01:34:26;-0.40;99.90
15556;DHT22;7879;48.660;9.116;2023-01-29T01:36:53;-0.40;99.90
15556;DHT22;7879;48.660;9.116;2023-01-29T01:39:22;-0.40;99.90
15556;DHT22;7879;48.660;9.116;2023-01-29T01:41:50;-0.40;99.90
15556;DHT22;7879;48.660;9.116;2023-01-29T01:44:58;-0.40;99.90
15556;DHT22;7879;48.660;9.116;2023-01-29T01:48:16;-0.40;99.90
15556;DHT22;7879;48.660;9.116;2023-01-29T01:50:48;-0.40;99.90
15556;DHT22;7879;48.660;9.116;2023-01-29T01:53:31;-0.40;99.90
15556;DHT22;7879;48.660;9.116;2023-01-29T01:56:04;-0.40;99.90
15556;DHT22;7879;48.660;9.116;2023-01-29T01:58:39;-0.40;99.90
15556;DHT22;7879;48.660;9.116;2023-01-29T02:01:08;-0.40;99.90
15556;DHT22;7879;48.660;9.116;2023-01-29T02:03:49;-0.40;99.90
15556;DHT22;7879;48.660;9.116;2023-01-29T02:06:39;-0.50;99.90
15556;DHT22;7879;48.660;9.116;2023-01-29T02:09:30;-0.50;99.90
15556;DHT22;7879;48.660;9.116;2023-01-29T02:12:07;-0.50;99.90
15556;DHT22;7879;48.660;9.116;2023-01-29T02:14:36;-0.40;99.90
15556;DHT22;7879;48.660;9.116;2023-01-29T02:17:11;-0.40;99.90
15556;DHT22;7879;48.660;9.116;2023-01-29T02:22:50;-0.40;99.90
15556;DHT22;7879;48.660;9.116;2023-01-29T02:30:36;-0.50;99.90
15556;DHT22;7879;48.660;9.116;2023-01-29T02:33:24;-0.50;99.90
15556;DHT22;7879;48.660;9.116;2023-01-29T02:36:08;-0.50;99.90
15556;DHT22;7879;48.660;9.116;2023-01-29T02:38:40;-0.50;99.90
15556;DHT22;7879;48.660;9.116;2023-01-29T02:46:46;-0.60;99.90
15556;DHT22;7879;48.660;9.116;2023-01-29T02:52:15;-0.60;99.90
15556;DHT22;7879;48.660;9.116;2023-01-29T02:54:49;-0.60;99.90
15556;DHT22;7879;48.660;9.116;2023-01-29T02:57:34;-0.60;99.90
15556;DHT22;7879;48.660;9.116;2023-01-29T03:00:12;-0.60;99.90
15556;DHT22;7879;48.660;9.116;2023-01-29T03:02:49;-0.60;99.90
15556;DHT22;7879;48.660;9.116;2023-01-29T03:05:25;-0.60;99.90
15556;DHT22;7879;48.660;9.116;2023-01-29T03:07:59;-0.60;99.90
15556;DHT22;7879;48.660;9.116;2023-01-29T03:10:28;-0.60;99.90
15556;DHT22;7879;48.660;9.116;2023-01-29T03:13:06;-0.60;99.90
15556;DHT22;7879;48.660;9.116;2023-01-29T03:15:42;-0.60;99.90
15556;DHT22;7879;48.660;9.116;2023-01-29T03:18:21;-0.60;99.90
15556;DHT22;7879;48.660;9.116;2023-01-29T03:20:55;-0.60;99.90
15556;DHT22;7879;48.660;9.116;2023-01-29T03:23:33;-0.60;99.90
15556;DHT22;7879;48.660;9.116;2023-01-29T03:26:21;-0.50;99.90
15556;DHT22;7879;48.660;9.116;2023-01-29T03:29:07;-0.50;99.90
15556;DHT22;7879;48.660;9.116;2023-01-29T03:31:55;-0.60;99.90
15556;DHT22;7879;48.660;9.116;2023-01-29T03:34:45;-0.60;99.90
15556;DHT22;7879;48.660;9.116;2023-01-29T03:37:42;-0.60;99.90
15556;DHT22;7879;48.660;9.116;2023-01-29T03:40:11;-0.60;99.90
15556;DHT22;7879;48.660;9.116;2023-01-29T03:42:59;-0.60;99.90
15556;DHT22;7879;48.660;9.116;2023-01-29T03:48:32;-0.70;99.90
15556;DHT22;7879;48.660;9.116;2023-01-29T04:01:53;-0.60;99.90
15556;DHT22;7879;48.660;9.116;2023-01-29T04:04:33;-0.60;99.90
15556;DHT22;7879;48.660;9.116;2023-01-29T04:07:11;-0.60;99.90
15556;DHT22;7879;48.660;9.116;2023-01-29T04:10:00;-0.60;99.90
15556;DHT22;7879;48.660;9.116;2023-01-29T04:12:57;-0.60;99.90
15556;DHT22;7879;48.660;9.116;2023-01-29T04:15:23;-0.60;99.90
15556;DHT22;7879;48.660;9.116;2023-01-29T04:17:52;-0.60;99.90
15556;DHT22;7879;48.660;9.116;2023-01-29T04:20:21;-0.60;99.90
15556;DHT22;7879;48.660;9.116;2023-01-29T04:22:49;-0.60;99.90
15556;DHT22;7879;48.660;9.116;2023-01-29T04:25:30;-0.70;99.90
15556;DHT22;7879;48.660;9.116;2023-01-29T04:30:51;-0.60;99.90
15556;DHT22;7879;48.660;9.116;2023-01-29T04:33:28;-0.60;99.90
15556;DHT22;7879;48.660;9.116;2023-01-29T04:36:06;-0.60;99.90
15556;DHT22;7879;48.660;9.116;2023-01-29T04:41:41;-0.60;99.90
15556;DHT22;7879;48.660;9.116;2023-01-29T04:49:52;-0.70;99.90
15556;DHT22;7879;48.660;9.116;2023-01-29T04:57:53;-0.70;99.90
15556;DHT22;7879;48.660;9.116;2023-01-29T05:00:28;-0.70;99.90
15556;DHT22;7879;48.660;9.116;2023-01-29T05:02:59;-0.70;99.90
15556;DHT22;7879;48.660;9.116;2023-01-29T05:05:27;-0.60;99.90
15556;DHT22;7879;48.660;9.116;2023-01-29T05:07:56;-0.70;99.90
15556;DHT22;7879;48.660;9.116;2023-01-29T05:10:24;-0.70;99.90
15556;DHT22;7879;48.660;9.116;2023-01-29T05:13:01;-0.70;99.90
15556;DHT22;7879;48.660;9.116;2023-01-29T05:15:43;-0.70;99.90
15556;DHT22;7879;48.660;9.116;2023-01-29T05:18:10;-0.80;99.90
15556;DHT22;7879;48.660;9.116;2023-01-29T05:20:39;-0.80;99.90
15556;DHT22;7879;48.660;9.116;2023-01-29T05:23:15;-0.80;99.90
15556;DHT22;7879;48.660;9.116;2023-01-29T05:25:42;-0.80;99.90
15556;DHT22;7879;48.660;9.116;2023-01-29T05:28:09;-0.80;99.90
15556;DHT22;7879;48.660;9.116;2023-01-29T05:30:47;-0.80;99.90
15556;DHT22;7879;48.660;9.116;2023-01-29T05:33:23;-0.80;99.90
15556;DHT22;7879;48.660;9.116;2023-01-29T05:35:50;-0.80;99.90
15556;DHT22;7879;48.660;9.116;2023-01-29T05:38:17;-0.80;99.90
15556;DHT22;7879;48.660;9.116;2023-01-29T05:40:44;-0.80;99.90
15556;DHT22;7879;48.660;9.116;2023-01-29T05:43:19;-0.80;99.90
15556;DHT22;7879;48.660;9.116;2023-01-29T05:45:57;-0.70;99.90
15556;DHT22;7879;48.660;9.116;2023-01-29T05:48:26;-0.80;99.90
15556;DHT22;7879;48.660;9.116;2023-01-29T05:50:59;-0.80;99.90
15556;DHT22;7879;48.660;9.116;2023-01-29T05:53:28;-0.70;99.90
15556;DHT22;7879;48.660;9.116;2023-01-29T05:55:54;-0.80;99.90
15556;DHT22;7879;48.660;9.116;2023-01-29T05:58:24;-0.90;99.90
15556;DHT22;7879;48.660;9.116;2023-01-29T06:00:51;-0.80;99.90
15556;DHT22;7879;48.660;9.116;2023-01-29T06:03:17;-0.90;99.90
15556;DHT22;7879;48.660;9.116;2023-01-29T06:05:44;-0.90;99.90
15556;DHT22;7879;48.660;9.116;2023-01-29T06:08:11;-0.90;99.90
15556;DHT22;7879;48.660;9.116;2023-01-29T06:10:38;-0.90;99.90
15556;DHT22;7879;48.660;9.116;2023-01-29T06:13:05;-0.90;99.90
15556;DHT22;7879;48.660;9.116;2023-01-29T06:15:33;-0.90;99.90
15556;DHT22;7879;48.660;9.116;2023-01-29T06:18:00;-0.90;99.90
15556;DHT22;7879;48.660;9.116;2023-01-29T06:20:26;-0.90;99.90
15556;DHT22;7879;48.660;9.116;2023-01-29T06:22:53;-0.90;99.90
15556;DHT22;7879;48.660;9.116;2023-01-29T06:25:20;-0.90;99.90
15556;DHT22;7879;48.660;9.116;2023-01-29T06:27:49;-0.90;99.90
15556;DHT22;7879;48.660;9.116;2023-01-29T06:30:16;-0.90;99.90
15556;DHT22;7879;48.660;9.116;2023-01-29T06:32:44;-0.90;99.90
15556;DHT22;7879;48.660;9.116;2023-01-29T06:35:10;-1.00;99.90
15556;DHT22;7879;48.660;9.116;2023-01-29T06:37:37;-0.90;99.90
15556;DHT22;7879;48.660;9.116;2023-01-29T06:40:04;-0.90;99.90
15556;DHT22;7879;48.660;9.116;2023-01-29T06:42:34;-1.00;99.90
15556;DHT22;7879;48.660;9.116;2023-01-29T06:45:00;-0.90;99.90
15556;DHT22;7879;48.660;9.116;2023-01-29T06:47:27;-0.90;99.90
15556;DHT22;7879;48.660;9.116;2023-01-29T06:49:54;-0.90;99.90
15556;DHT22;7879;48.660;9.116;2023-01-29T06:52:21;-0.80;99.90
15556;DHT22;7879;48.660;9.116;2023-01-29T06:54:47;-0.90;99.90
15556;DHT22;7879;48.660;9.116;2023-01-29T06:57:14;-0.90;99.90
15556;DHT22;7879;48.660;9.116;2023-01-29T06:59:41;-0.90;99.90
15556;DHT22;7879;48.660;9.116;2023-01-29T07:02:08;-0.80;99.90
15556;DHT22;7879;48.660;9.116;2023-01-29T07:04:35;-0.90;99.90
15556;DHT22;7879;48.660;9.116;2023-01-29T07:07:03;-0.90;99.90
15556;DHT22;7879;48.660;9.116;2023-01-29T07:09:30;-0.90;99.90
15556;DHT22;7879;48.660;9.116;2023-01-29T07:11:57;-0.90;99.90
15556;DHT22;7879;48.660;9.116;2023-01-29T07:14:24;-0.90;99.90
15556;DHT22;7879;48.660;9.116;2023-01-29T07:16:50;-0.90;99.90
15556;DHT22;7879;48.660;9.116;2023-01-29T07:19:17;-0.90;99.90
15556;DHT22;7879;48.660;9.116;2023-01-29T07:21:44;-0.90;99.90
15556;DHT22;7879;48.660;9.116;2023-01-29T07:24:11;-0.90;99.90
15556;DHT22;7879;48.660;9.116;2023-01-29T07:26:37;-0.90;99.90
15556;DHT22;7879;48.660;9.116;2023-01-29T07:29:04;-0.90;99.90
15556;DHT22;7879;48.660;9.116;2023-01-29T07:31:31;-0.90;99.90
15556;DHT22;7879;48.660;9.116;2023-01-29T07:33:58;-0.90;99.90
15556;DHT22;7879;48.660;9.116;2023-01-29T07:36:25;-0.90;99.90
15556;DHT22;7879;48.660;9.116;2023-01-29T07:38:52;-0.80;99.90
15556;DHT22;7879;48.660;9.116;2023-01-29T07:41:19;-0.80;99.90
15556;DHT22;7879;48.660;9.116;2023-01-29T07:43:46;-0.90;99.90
15556;DHT22;7879;48.660;9.116;2023-01-29T07:46:13;-0.80;99.90
15556;DHT22;7879;48.660;9.116;2023-01-29T07:48:40;-0.90;99.90
15556;DHT22;7879;48.660;9.116;2023-01-29T07:51:07;-0.90;99.90
15556;DHT22;7879;48.660;9.116;2023-01-29T07:53:34;-0.80;99.90
15556;DHT22;7879;48.660;9.116;2023-01-29T07:56:02;-0.80;99.90
15556;DHT22;7879;48.660;9.116;2023-01-29T07:58:29;-0.80;99.90
15556;DHT22;7879;48.660;9.116;2023-01-29T08:00:55;-0.80;99.90
15556;DHT22;7879;48.660;9.116;2023-01-29T08:03:22;-0.80;99.90
15556;DHT22;7879;48.660;9.116;2023-01-29T08:05:49;-0.80;99.90
15556;DHT22;7879;48.660;9.116;2023-01-29T08:08:16;-0.80;99.90
15556;DHT22;7879;48.660;9.116;2023-01-29T08:10:43;-0.80;99.90
15556;DHT22;7879;48.660;9.116;2023-01-29T08:13:10;-0.80;99.90
15556;DHT22;7879;48.660;9.116;2023-01-29T08:15:36;-0.80;99.90
15556;DHT22;7879;48.660;9.116;2023-01-29T08:18:05;-0.80;99.90
15556;DHT22;7879;48.660;9.116;2023-01-29T08:20:32;-0.80;99.90
15556;DHT22;7879;48.660;9.116;2023-01-29T08:23:03;-0.80;99.90
15556;DHT22;7879;48.660;9.116;2023-01-29T08:25:31;-0.80;99.90
15556;DHT22;7879;48.660;9.116;2023-01-29T08:27:59;-0.80;99.90
15556;DHT22;7879;48.660;9.116;2023-01-29T08:30:28;-0.80;99.90
15556;DHT22;7879;48.660;9.116;2023-01-29T08:32:55;-0.80;99.90
15556;DHT22;7879;48.660;9.116;2023-01-29T08:35:22;-0.80;99.90
15556;DHT22;7879;48.660;9.116;2023-01-29T08:38:00;-0.80;99.90
15556;DHT22;7879;48.660;9.116;2023-01-29T08:40:31;-0.70;99.90
15556;DHT22;7879;48.660;9.116;2023-01-29T08:43:02;-0.70;99.90
15556;DHT22;7879;48.660;9.116;2023-01-29T08:45:36;-0.70;99.90
15556;DHT22;7879;48.660;9.116;2023-01-29T08:48:03;-0.70;99.90
15556;DHT22;7879;48.660;9.116;2023-01-29T08:50:30;-0.60;99.90
15556;DHT22;7879;48.660;9.116;2023-01-29T08:52:59;-0.70;99.90
15556;DHT22;7879;48.660;9.116;2023-01-29T08:55:27;-0.60;99.90
15556;DHT22;7879;48.660;9.116;2023-01-29T08:57:54;-0.70;99.90
15556;DHT22;7879;48.660;9.116;2023-01-29T09:00:22;-0.60;99.90
15556;DHT22;7879;48.660;9.116;2023-01-29T09:02:50;-0.70;99.90
15556;DHT22;7879;48.660;9.116;2023-01-29T09:05:16;-0.70;99.90
15556;DHT22;7879;48.660;9.116;2023-01-29T09:07:44;-0.60;99.90
15556;DHT22;7879;48.660;9.116;2023-01-29T09:10:11;-0.60;99.90
15556;DHT22;7879;48.660;9.116;2023-01-29T09:12:37;-0.60;99.90
15556;DHT22;7879;48.660;9.116;2023-01-29T09:15:05;-0.60;99.90
15556;DHT22;7879;48.660;9.116;2023-01-29T09:17:31;-0.60;99.90
15556;DHT22;7879;48.660;9.116;2023-01-29T09:19:58;-0.60;99.90
15556;DHT22;7879;48.660;9.116;2023-01-29T09:22:25;-0.60;99.90
15556;DHT22;7879;48.660;9.116;2023-01-29T09:24:52;-0.60;99.90
15556;DHT22;7879;48.660;9.116;2023-01-29T09:27:19;-0.60;99.90
15556;DHT22;7879;48.660;9.116;2023-01-29T09:29:46;-0.60;99.90
15556;DHT22;7879;48.660;9.116;2023-01-29T09:32:12;-0.60;99.90
15556;DHT22;7879;48.660;9.116;2023-01-29T09:34:42;-0.50;99.90
15556;DHT22;7879;48.660;9.116;2023-01-29T09:37:09;-0.60;99.90
15556;DHT22;7879;48.660;9.116;2023-01-29T09:39:36;-0.60;99.90
15556;DHT22;7879;48.660;9.116;2023-01-29T09:42:27;-0.50;99.90
15556;DHT22;7879;48.660;9.116;2023-01-29T09:45:07;-0.50;99.90
15556;DHT22;7879;48.660;9.116;2023-01-29T09:47:36;-0.40;99.90
15556;DHT22;7879;48.660;9.116;2023-01-29T09:50:28;-0.50;99.90
15556;DHT22;7879;48.660;9.116;2023-01-29T09:53:49;-0.50;99.90
15556;DHT22;7879;48.660;9.116;2023-01-29T09:55:59;-0.50;99.90
15556;DHT22;7879;48.660;9.116;2023-01-29T10:12:38;-0.50;99.90
15556;DHT22;7879;48.660;9.116;2023-01-29T10:18:30;-0.40;99.90
15556;DHT22;7879;48.660;9.116;2023-01-29T10:26:36;-0.10;99.90
15556;DHT22;7879;48.660;9.116;2023-01-29T10:29:06;-0.10;99.90
15556;DHT22;7879;48.660;9.116;2023-01-29T10:31:37;0.00;99.90
15556;DHT22;7879;48.660;9.116;2023-01-29T10:34:13;0.00;99.90
15556;DHT22;7879;48.660;9.116;2023-01-29T10:36:45;0.00;99.90
15556;DHT22;7879;48.660;9.116;2023-01-29T10:39:20;0.00;99.90
15556;DHT22;7879;48.660;9.116;2023-01-29T10:47:57;0.00;99.90
15556;DHT22;7879;48.660;9.116;2023-01-29T10:50:54;0.10;99.90
15556;DHT22;7879;48.660;9.116;2023-01-29T10:58:42;0.10;99.90
15556;DHT22;7879;48.660;9.116;2023-01-29T11:01:12;0.20;99.90
15556;DHT22;7879;48.660;9.116;2023-01-29T11:03:39;0.20;99.90
15556;DHT22;7879;48.660;9.116;2023-01-29T11:09:08;0.30;99.90
15556;DHT22;7879;48.660;9.116;2023-01-29T11:11:42;0.30;99.90
15556;DHT22;7879;48.660;9.116;2023-01-29T11:14:28;0.40;99.90
15556;DHT22;7879;48.660;9.116;2023-01-29T11:16:58;0.50;99.90
15556;DHT22;7879;48.660;9.116;2023-01-29T11:19:40;0.60;99.90
15556;DHT22;7879;48.660;9.116;2023-01-29T11:22:15;0.70;99.90
15556;DHT22;7879;48.660;9.116;2023-01-29T11:24:43;0.90;99.90
15556;DHT22;7879;48.660;9.116;2023-01-29T11:27:24;1.00;99.90
15556;DHT22;7879;48.660;9.116;2023-01-29T11:29:52;0.80;99.90
15556;DHT22;7879;48.660;9.116;2023-01-29T11:32:28;0.90;99.90
15556;DHT22;7879;48.660;9.116;2023-01-29T11:37:40;0.70;99.90
15556;DHT22;7879;48.660;9.116;2023-01-29T11:40:36;0.70;99.90
15556;DHT22;7879;48.660;9.116;2023-01-29T11:43:21;0.80;99.90
15556;DHT22;7879;48.660;9.116;2023-01-29T11:45:50;0.90;99.90
15556;DHT22;7879;48.660;9.116;2023-01-29T11:48:20;1.00;99.90
15556;DHT22;7879;48.660;9.116;2023-01-29T11:51:09;1.00;99.90
15556;DHT22;7879;48.660;9.116;2023-01-29T11:53:39;1.10;99.90
15556;DHT22;7879;48.660;9.116;2023-01-29T11:58:48;1.10;99.90
15556;DHT22;7879;48.660;9.116;2023-01-29T12:01:17;1.00;99.90
15556;DHT22;7879;48.660;9.116;2023-01-29T12:03:52;1.00;99.90
15556;DHT22;7879;48.660;9.116;2023-01-29T12:06:22;1.00;99.90
15556;DHT22;7879;48.660;9.116;2023-01-29T12:08:55;1.00;99.90
15556;DHT22;7879;48.660;9.116;2023-01-29T12:11:30;1.00;99.90
15556;DHT22;7879;48.660;9.116;2023-01-29T12:14:02;1.00;99.90
15556;DHT22;7879;48.660;9.116;2023-01-29T12:19:41;1.00;99.90
15556;DHT22;7879;48.660;9.116;2023-01-29T12:28:14;1.00;99.90
15556;DHT22;7879;48.660;9.116;2023-01-29T12:39:12;1.30;99.90
15556;DHT22;7879;48.660;9.116;2023-01-29T12:41:57;1.30;99.90
15556;DHT22;7879;48.660;9.116;2023-01-29T12:44:37;1.40;99.90
15556;DHT22;7879;48.660;9.116;2023-01-29T12:47:26;1.40;99.90
15556;DHT22;7879;48.660;9.116;2023-01-29T12:49:59;1.30;99.90
15556;DHT22;7879;48.660;9.116;2023-01-29T12:52:42;1.30;99.90
15556;DHT22;7879;48.660;9.116;2023-01-29T12:55:17;1.30;99.90
15556;DHT22;7879;48.660;9.116;2023-01-29T12:57:57;1.30;99.90
15556;DHT22;7879;48.660;9.116;2023-01-29T13:00:37;1.30;99.90
15556;DHT22;7879;48.660;9.116;2023-01-29T13:05:54;1.30;99.90
15556;DHT22;7879;48.660;9.116;2023-01-29T13:08:50;1.20;99.90
15556;DHT22;7879;48.660;9.116;2023-01-29T13:11:26;1.30;99.90
15556;DHT22;7879;48.660;9.116;2023-01-29T13:14:01;1.30;99.90
15556;DHT22;7879;48.660;9.116;2023-01-29T13:16:34;1.40;99.90
15556;DHT22;7879;48.660;9.116;2023-01-29T13:19:05;1.40;99.90
15556;DHT22;7879;48.660;9.116;2023-01-29T13:21:40;1.40;99.90
15556;DHT22;7879;48.660;9.116;2023-01-29T13:24:14;1.30;99.90
15556;DHT22;7879;48.660;9.116;2023-01-29T13:26:46;1.40;99.90
15556;DHT22;7879;48.660;9.116;2023-01-29T13:29:25;1.40;99.90
15556;DHT22;7879;48.660;9.116;2023-01-29T13:31:55;1.40;99.90
15556;DHT22;7879;48.660;9.116;2023-01-29T13:34:32;1.40;99.90
15556;DHT22;7879;48.660;9.116;2023-01-29T13:37:03;1.40;99.90
15556;DHT22;7879;48.660;9.116;2023-01-29T13:39:39;1.50;99.90
15556;DHT22;7879;48.660;9.116;2023-01-29T13:42:40;1.40;99.90
15556;DHT22;7879;48.660;9.116;2023-01-29T13:45:18;1.40;99.90
15556;DHT22;7879;48.660;9.116;2023-01-29T13:47:46;1.50;99.90
15556;DHT22;7879;48.660;9.116;2023-01-29T13:50:28;1.50;99.90
15556;DHT22;7879;48.660;9.116;2023-01-29T13:52:58;1.40;99.90
15556;DHT22;7879;48.660;9.116;2023-01-29T13:55:31;1.50;99.90
15556;DHT22;7879;48.660;9.116;2023-01-29T13:58:04;1.50;99.90
15556;DHT22;7879;48.660;9.116;2023-01-29T14:08:01;1.40;99.90
15556;DHT22;7879;48.660;9.116;2023-01-29T14:10:30;1.40;99.90
15556;DHT22;7879;48.660;9.116;2023-01-29T14:15:34;1.50;99.90
15556;DHT22;7879;48.660;9.116;2023-01-29T14:18:05;1.40;99.90
15556;DHT22;7879;48.660;9.116;2023-01-29T14:21:00;1.40;99.90
15556;DHT22;7879;48.660;9.116;2023-01-29T14:23:51;1.40;99.90
15556;DHT22;7879;48.660;9.116;2023-01-29T14:26:20;1.40;99.90
15556;DHT22;7879;48.660;9.116;2023-01-29T14:29:00;1.30;99.90
15556;DHT22;7879;48.660;9.116;2023-01-29T14:34:48;1.30;99.90
15556;DHT22;7879;48.660;9.116;2023-01-29T14:40:22;1.20;99.90
15556;DHT22;7879;48.660;9.116;2023-01-29T14:42:55;1.30;99.90
15556;DHT22;7879;48.660;9.116;2023-01-29T14:47:54;1.30;99.90
15556;DHT22;7879;48.660;9.116;2023-01-29T14:53:18;1.20;99.90
15556;DHT22;7879;48.660;9.116;2023-01-29T14:56:02;1.20;99.90
15556;DHT22;7879;48.660;9.116;2023-01-29T14:58:37;1.20;99.90
15556;DHT22;7879;48.660;9.116;2023-01-29T15:01:13;1.20;99.90
15556;DHT22;7879;48.660;9.116;2023-01-29T15:03:53;1.20;99.90
15556;DHT22;7879;48.660;9.116;2023-01-29T15:11:48;1.10;99.90
15556;DHT22;7879;48.660;9.116;2023-01-29T15:14:28;1.10;99.90
15556;DHT22;7879;48.660;9.116;2023-01-29T15:17:45;1.00;99.90
15556;DHT22;7879;48.660;9.116;2023-01-29T15:19:50;1.00;99.90
15556;DHT22;7879;48.660;9.116;2023-01-29T15:22:19;1.00;99.90
15556;DHT22;7879;48.660;9.116;2023-01-29T15:25:04;1.00;99.90
15556;DHT22;7879;48.660;9.116;2023-01-29T15:27:33;1.00;99.90
15556;DHT22;7879;48.660;9.116;2023-01-29T15:30:02;1.00;99.90
15556;DHT22;7879;48.660;9.116;2023-01-29T15:32:36;1.00;99.90
15556;DHT22;7879;48.660;9.116;2023-01-29T15:35:12;1.00;99.90
15556;DHT22;7879;48.660;9.116;2023-01-29T15:37:43;0.90;99.90
15556;DHT22;7879;48.660;9.116;2023-01-29T15:40:23;0.90;99.90
15556;DHT22;7879;48.660;9.116;2023-01-29T15:42:50;0.90;99.90
15556;DHT22;7879;48.660;9.116;2023-01-29T15:45:28;0.90;99.90
15556;DHT22;7879;48.660;9.116;2023-01-29T15:48:01;0.80;99.90
15556;DHT22;7879;48.660;9.116;2023-01-29T15:50:30;0.80;99.90
15556;DHT22;7879;48.660;9.116;2023-01-29T15:53:00;0.80;99.90
15556;DHT22;7879;48.660;9.116;2023-01-29T15:55:29;0.70;99.90
15556;DHT22;7879;48.660;9.116;2023-01-29T15:57:58;0.70;99.90
15556;DHT22;7879;48.660;9.116;2023-01-29T16:00:27;0.70;99.90
15556;DHT22;7879;48.660;9.116;2023-01-29T16:02:56;0.70;99.90
15556;DHT22;7879;48.660;9.116;2023-01-29T16:05:27;0.70;99.90
15556;DHT22;7879;48.660;9.116;2023-01-29T16:07:55;0.60;99.90
15556;DHT22;7879;48.660;9.116;2023-01-29T16:10:28;0.60;99.90
15556;DHT22;7879;48.660;9.116;2023-01-29T16:12:55;0.60;99.90
15556;DHT22;7879;48.660;9.116;2023-01-29T16:15:34;0.50;99.90
15556;DHT22;7879;48.660;9.116;2023-01-29T16:18:04;0.50;99.90
15556;DHT22;7879;48.660;9.116;2023-01-29T16:20:45;0.50;99.90
15556;DHT22;7879;48.660;9.116;2023-01-29T16:23:20;0.40;99.90
15556;DHT22;7879;48.660;9.116;2023-01-29T16:25:49;0.30;99.90
15556;DHT22;7879;48.660;9.116;2023-01-29T16:28:16;0.30;99.90
15556;DHT22;7879;48.660;9.116;2023-01-29T16:30:44;0.30;99.90
15556;DHT22;7879;48.660;9.116;2023-01-29T16:33:14;0.20;99.90
15556;DHT22;7879;48.660;9.116;2023-01-29T16:35:49;0.10;99.90
15556;DHT22;7879;48.660;9.116;2023-01-29T16:38:29;0.10;99.90
15556;DHT22;7879;48.660;9.116;2023-01-29T16:41:15;0.10;99.90
15556;DHT22;7879;48.660;9.116;2023-01-29T16:44:01;0.10;99.90
15556;DHT22;7879;48.660;9.116;2023-01-29T16:46:36;0.00;99.90
15556;DHT22;7879;48.660;9.116;2023-01-29T16:52:16;0.00;99.90
15556;DHT22;7879;48.660;9.116;2023-01-29T16:54:43;0.00;99.90
15556;DHT22;7879;48.660;9.116;2023-01-29T16:57:14;0.00;99.90
15556;DHT22;7879;48.660;9.116;2023-01-29T16:59:41;0.00;99.90
15556;DHT22;7879;48.660;9.116;2023-01-29T17:02:30;0.00;99.90
15556;DHT22;7879;48.660;9.116;2023-01-29T17:05:08;-0.10;99.90
15556;DHT22;7879;48.660;9.116;2023-01-29T17:07:36;-0.20;99.90
15556;DHT22;7879;48.660;9.116;2023-01-29T17:10:05;-0.20;99.90
15556;DHT22;7879;48.660;9.116;2023-01-29T17:12:32;-0.30;99.90
15556;DHT22;7879;48.660;9.116;2023-01-29T17:15:20;-0.30;99.90
15556;DHT22;7879;48.660;9.116;2023-01-29T17:17:51;-0.30;99.90
15556;DHT22;7879;48.660;9.116;2023-01-29T17:20:18;-0.50;99.90
15556;DHT22;7879;48.660;9.116;2023-01-29T17:22:44;-0.50;99.90
15556;DHT22;7879;48.660;9.116;2023-01-29T17:25:13;-0.50;99.90
15556;DHT22;7879;48.660;9.116;2023-01-29T17:27:41;-0.60;99.90
15556;DHT22;7879;48.660;9.116;2023-01-29T17:30:14;-0.60;99.90
15556;DHT22;7879;48.660;9.116;2023-01-29T17:32:41;-0.60;99.90
15556;DHT22;7879;48.660;9.116;2023-01-29T17:35:14;-0.60;99.90
15556;DHT22;7879;48.660;9.116;2023-01-29T17:37:42;-0.60;99.90
15556;DHT22;7879;48.660;9.116;2023-01-29T17:40:42;-0.40;99.90
15556;DHT22;7879;48.660;9.116;2023-01-29T17:43:07;-0.60;99.90
15556;DHT22;7879;48.660;9.116;2023-01-29T17:45:38;-0.70;99.90
15556;DHT22;7879;48.660;9.116;2023-01-29T17:48:29;-0.80;99.90
15556;DHT22;7879;48.660;9.116;2023-01-29T17:50:59;-0.80;99.90
15556;DHT22;7879;48.660;9.116;2023-01-29T17:53:27;-0.80;99.90
15556;DHT22;7879;48.660;9.116;2023-01-29T17:56:14;-0.80;99.90
15556;DHT22;7879;48.660;9.116;2023-01-29T17:58:41;-0.90;99.90
15556;DHT22;7879;48.660;9.116;2023-01-29T18:01:08;-0.80;99.90
15556;DHT22;7879;48.660;9.116;2023-01-29T18:03:35;-0.80;99.90
15556;DHT22;7879;48.660;9.116;2023-01-29T18:06:06;-0.80;99.90
15556;DHT22;7879;48.660;9.116;2023-01-29T18:08:35;-0.90;99.90
15556;DHT22;7879;48.660;9.116;2023-01-29T18:11:02;-0.90;99.90
15556;DHT22;7879;48.660;9.116;2023-01-29T18:13:29;-1.00;99.90
15556;DHT22;7879;48.660;9.116;2023-01-29T18:15:58;-1.00;99.90
15556;DHT22;7879;48.660;9.116;2023-01-29T18:18:25;-1.00;99.90
15556;DHT22;7879;48.660;9.116;2023-01-29T18:20:53;-1.00;99.90
15556;DHT22;7879;48.660;9.116;2023-01-29T18:23:19;-1.00;99.90
15556;DHT22;7879;48.660;9.116;2023-01-29T18:25:46;-1.00;99.90
15556;DHT22;7879;48.660;9.116;2023-01-29T18:28:15;-1.10;99.90
15556;DHT22;7879;48.660;9.116;2023-01-29T18:30:45;-1.00;99.90
15556;DHT22;7879;48.660;9.116;2023-01-29T18:33:14;-1.00;99.90
15556;DHT22;7879;48.660;9.116;2023-01-29T18:35:43;-1.00;99.90
15556;DHT22;7879;48.660;9.116;2023-01-29T18:38:10;-1.10;99.90
15556;DHT22;7879;48.660;9.116;2023-01-29T18:40:37;-1.10;99.90
15556;DHT22;7879;48.660;9.116;2023-01-29T18:43:04;-1.20;99.90
15556;DHT22;7879;48.660;9.116;2023-01-29T18:45:30;-1.30;99.90